Historyczne dane pomiarowe

Dodano dane terminowe – wersja testowa.

Dane z okresu 1951-2019

Wersja bazy: 1.34 [2019-03-16, lista zmian], aktualizacja planowana na 2019-04-15

Dane meteo z obszaru Polski uzyskane na podstawie danych udostępnionych przez Instytut Meteorologii i Gospodarki Wodnej – Państwowy Instytut Badawczy.

 

Wybierz Datę:    

       

TemperaturaWilgotnośćZachmurzenieWiatrCiśnienieWidzialnośćZjawiska
 Data    tng td wb rh cc ccl cl cm ch dir g1 g2 mslp ppp      
1994-08-05 00:00:00 12.2--- 10.6 11.390wxwx0wx--1023.7 982.5 0.0---wx
1994-08-05 01:00:00 11.1--- 10.0 10.593wxwx0wx--1023.5 982.2----wx
1994-08-05 02:00:00 11.0--- 10.1 10.594wxwx0wx--1023.5 982.1----wx
1994-08-05 03:00:00 10.0--- 9.4 9.796wxwx0wx--1023.5 982.0----wx
1994-08-05 04:00:00 9.5--- 8.7 9.195wxwxwx0wx--1023.6 982.0----wx
1994-08-05 05:00:00 10.8--- 9.9 10.394wxwxwx0wx--1023.5 982.1----wx
1994-08-05 06:00:00 14.8--- 12.1 13.284wxwxwx0wx--1022.8 982.0 0.0---wx
1994-08-05 07:00:00 19.8--- 14.1 16.370wxwxwx0wx--1021.9 981.8----wx
1994-08-05 08:00:00 25.5--- 14.6 18.651wxwxwx0wx--1020.8 981.5----wx
1994-08-05 09:00:00 28.1--- 13.7 19.041wxwxwx0wx--1020.0 981.1----wx
1994-08-05 10:00:00 29.8--- 14.2 19.839wxwxwx1wx--1019.3 980.6----wx
1994-08-05 11:00:00 31.1--- 14.5 20.437wxwx0wx--1018.8 980.3----wx
1994-08-05 12:00:00 31.7--- 14.9 20.836wxwxwx0wx--1018.2 979.8 0.0---wx
1994-08-05 13:00:00 32.1--- 14.7 20.835wxwxwx1wx--1017.6 979.3----wx
1994-08-05 14:00:00 32.1--- 14.3 20.634wxwxwx2wx--1017.1 978.8----wx
1994-08-05 15:00:00 32.6--- 15.0 21.135wxwxwx0wx--1016.9 978.7----wx
1994-08-05 16:00:00 32.8--- 16.2 21.837wxwxwx0wx--1016.4 978.2----wx
1994-08-05 17:00:00 31.3--- 16.5 21.541wxwxwx0wx--1016.3 977.9----wx
1994-08-05 18:00:00 28.8--- 16.0 20.446wxwx0wx--1016.7 978.0 0.0---wx
1994-08-05 19:00:00 24.1--- 14.6 18.155wxwx1wx--1017.5 978.2----wx
1994-08-05 20:00:00 21.4--- 15.4 17.669wxwx0wx--1018.5 978.8----wx
1994-08-05 21:00:00 18.9--- 14.9 16.478wxwx0wx--1018.8 978.7----wx
1994-08-05 22:00:00 17.4--- 14.1 15.481wxwx0wx--1019.1 978.8----wx
1994-08-05 23:00:00 16.3--- 12.8 14.280wxwx0wx--1019.2 978.8----wx

 

Źródłem pochodzenia danych jest Instytut Meteorologii i Gospodarki Wodnej – Państwowy Instytut Badawczy. Dane Instytutu Meteorologii i Gospodarki Wodnej – Państwowego Instytutu Badawczego zostały przetworzone.

Dane źródłowe można odnaleźć na stronie https://dane.imgw.pl